createdAt,value
2023-05-17T00:00:41.414Z,6.13
2023-05-17T00:03:07.962Z,6.11
2023-05-17T00:05:34.499Z,6.30
2023-05-17T00:08:01.020Z,6.44
2023-05-17T00:10:27.592Z,6.49
2023-05-17T00:12:54.114Z,6.45
2023-05-17T00:15:20.617Z,6.54
2023-05-17T00:17:47.145Z,6.39
2023-05-17T00:20:13.736Z,6.42
2023-05-17T00:22:41.049Z,6.37
2023-05-17T00:25:07.986Z,6.25
2023-05-17T00:27:34.635Z,6.32
2023-05-17T00:30:01.143Z,6.31
2023-05-17T00:32:27.700Z,6.57
2023-05-17T00:34:54.378Z,6.59
2023-05-17T00:37:22.910Z,6.51
2023-05-17T00:39:49.611Z,6.41
2023-05-17T00:42:16.224Z,6.41
2023-05-17T00:44:42.774Z,6.41
2023-05-17T00:47:09.313Z,6.23
2023-05-17T00:49:35.902Z,6.31
2023-05-17T00:52:02.486Z,6.25
2023-05-17T00:54:30.411Z,6.58
2023-05-17T00:56:57.766Z,6.66
2023-05-17T00:59:25.260Z,6.69
2023-05-17T01:01:52.483Z,6.67
2023-05-17T01:04:19.258Z,6.64
2023-05-17T01:06:45.841Z,6.47
2023-05-17T01:09:12.779Z,6.53
2023-05-17T01:11:56.954Z,6.69
2023-05-17T01:14:58.611Z,6.76
2023-05-17T01:17:49.779Z,6.72
2023-05-17T01:20:31.367Z,6.63
2023-05-17T01:23:31.134Z,6.75
2023-05-17T01:26:41.337Z,6.72
2023-05-17T01:29:09.933Z,6.55
2023-05-17T01:31:37.249Z,6.69
2023-05-17T01:34:08.488Z,6.56
2023-05-17T01:36:35.906Z,6.54
2023-05-17T01:39:02.689Z,6.54
2023-05-17T01:41:42.356Z,6.55
2023-05-17T01:44:35.661Z,6.53
2023-05-17T01:47:12.752Z,6.60
2023-05-17T01:49:41.659Z,6.58
2023-05-17T01:52:11.962Z,6.63
2023-05-17T01:54:47.434Z,6.61
2023-05-17T01:57:15.585Z,6.60
2023-05-17T01:59:45.434Z,6.64
2023-05-17T02:02:12.374Z,6.68
2023-05-17T02:04:38.949Z,6.68
2023-05-17T02:07:05.495Z,6.68
2023-05-17T02:09:31.990Z,6.75
2023-05-17T02:11:58.994Z,6.74
2023-05-17T02:14:25.549Z,6.77
2023-05-17T02:16:52.092Z,6.76
2023-05-17T02:19:18.681Z,6.73
2023-05-17T02:21:45.262Z,6.69
2023-05-17T02:24:14.644Z,6.63
2023-05-17T02:26:43.063Z,6.61
2023-05-17T02:29:11.209Z,6.56
2023-05-17T02:31:37.775Z,6.54
2023-05-17T02:34:04.340Z,6.50
2023-05-17T02:36:30.923Z,6.25
2023-05-17T02:38:57.430Z,6.13
2023-05-17T02:41:23.973Z,6.09
2023-05-17T02:43:50.745Z,6.06
2023-05-17T02:46:17.264Z,5.95
2023-05-17T02:48:44.320Z,5.90
2023-05-17T02:51:10.987Z,5.71
2023-05-17T02:53:37.608Z,5.75
2023-05-17T02:56:04.634Z,5.33
2023-05-17T02:58:31.877Z,5.22
2023-05-17T03:00:58.385Z,5.16
2023-05-17T03:03:25.814Z,5.26
2023-05-17T03:05:52.410Z,5.33
2023-05-17T03:08:19.182Z,5.06
2023-05-17T03:10:47.360Z,4.92
2023-05-17T03:13:14.293Z,4.96
2023-05-17T03:15:41.172Z,5.02
2023-05-17T03:18:08.052Z,5.20
2023-05-17T03:20:36.770Z,5.16
2023-05-17T03:23:03.322Z,5.23
2023-05-17T03:25:30.259Z,5.33
2023-05-17T03:27:57.078Z,5.31
2023-05-17T03:30:23.637Z,5.28
2023-05-17T03:32:50.907Z,5.39
2023-05-17T03:35:17.502Z,5.30
2023-05-17T03:37:48.576Z,5.30
2023-05-17T03:40:15.188Z,5.03
2023-05-17T03:42:42.055Z,4.87
2023-05-17T03:45:08.986Z,4.89
2023-05-17T03:47:36.242Z,4.76
2023-05-17T03:50:03.681Z,4.77
2023-05-17T03:52:30.611Z,4.55
2023-05-17T03:54:58.622Z,4.36
2023-05-17T03:57:26.122Z,4.55
2023-05-17T03:59:52.718Z,4.67
2023-05-17T04:02:21.134Z,4.65
2023-05-17T04:04:52.924Z,4.66
2023-05-17T04:07:20.654Z,4.63
2023-05-17T04:09:47.508Z,4.68
2023-05-17T04:12:14.091Z,4.72
2023-05-17T04:14:41.351Z,4.70
2023-05-17T04:17:07.870Z,4.56
2023-05-17T04:19:35.187Z,4.43
2023-05-17T04:22:01.858Z,4.61
2023-05-17T04:24:29.095Z,4.70
2023-05-17T04:26:55.638Z,4.64
2023-05-17T04:29:24.466Z,4.72
2023-05-17T04:31:51.155Z,4.70
2023-05-17T04:34:17.776Z,4.73
2023-05-17T04:36:44.551Z,4.85
2023-05-17T04:39:11.101Z,4.98
2023-05-17T04:41:39.176Z,5.02
2023-05-17T04:44:09.378Z,5.00
2023-05-17T04:46:36.446Z,5.03
2023-05-17T04:49:03.536Z,5.00
2023-05-17T04:51:31.213Z,5.13
2023-05-17T04:54:00.881Z,5.27
2023-05-17T04:56:29.230Z,5.61
2023-05-17T04:58:56.294Z,5.87
2023-05-17T05:01:23.051Z,6.13
2023-05-17T05:03:51.197Z,6.10
2023-05-17T05:06:17.813Z,6.43
2023-05-17T05:08:44.945Z,6.78
2023-05-17T05:11:12.460Z,7.58
2023-05-17T05:13:39.074Z,7.75
2023-05-17T05:16:06.813Z,7.79
2023-05-17T05:18:34.638Z,8.72
2023-05-17T05:21:02.220Z,9.58
2023-05-17T05:23:29.830Z,10.09
2023-05-17T05:25:56.523Z,10.84
2023-05-17T05:28:23.155Z,11.03
2023-05-17T05:30:49.905Z,11.18
2023-05-17T05:33:16.787Z,11.39
2023-05-17T05:35:43.524Z,12.42
2023-05-17T05:38:10.155Z,12.23
2023-05-17T05:40:36.835Z,12.47
2023-05-17T05:43:03.468Z,13.20
2023-05-17T05:45:31.497Z,13.07
2023-05-17T05:48:01.769Z,13.43
2023-05-17T05:50:29.055Z,13.84
2023-05-17T05:53:10.837Z,13.45
2023-05-17T05:55:45.413Z,14.19
2023-05-17T05:58:12.058Z,14.05
2023-05-17T06:00:38.671Z,13.86
2023-05-17T06:03:06.307Z,14.01
2023-05-17T06:05:33.168Z,14.31
2023-05-17T06:07:59.940Z,14.46
2023-05-17T06:10:26.593Z,14.59
2023-05-17T06:12:53.200Z,14.58
2023-05-17T06:15:19.720Z,14.57
2023-05-17T06:17:46.332Z,15.40
2023-05-17T06:20:13.287Z,15.24
2023-05-17T06:22:39.829Z,15.55
2023-05-17T06:25:06.556Z,15.96
2023-05-17T06:27:33.802Z,16.21
2023-05-17T06:30:00.771Z,15.78
2023-05-17T06:32:27.490Z,16.08
2023-05-17T06:34:54.058Z,15.83
2023-05-17T06:37:20.594Z,16.26
2023-05-17T06:39:55.446Z,16.23
2023-05-17T06:42:26.281Z,15.61
2023-05-17T06:44:52.885Z,16.96
2023-05-17T06:47:19.507Z,17.33
2023-05-17T06:49:46.045Z,17.30
2023-05-17T06:52:12.675Z,17.75
2023-05-17T06:54:39.255Z,17.66
2023-05-17T06:57:05.992Z,16.73
2023-05-17T06:59:32.669Z,17.44
2023-05-17T07:02:00.340Z,18.00
2023-05-17T07:04:27.565Z,18.94
2023-05-17T07:06:54.784Z,18.38
2023-05-17T07:09:22.331Z,19.28
2023-05-17T07:11:48.858Z,19.52
2023-05-17T07:14:15.408Z,19.45
2023-05-17T07:16:41.922Z,20.02
2023-05-17T07:19:08.557Z,18.74
2023-05-17T07:21:35.150Z,19.24
2023-05-17T07:24:01.697Z,17.08
2023-05-17T07:26:28.292Z,18.19
2023-05-17T07:28:54.824Z,16.76
2023-05-17T07:31:21.392Z,14.90
2023-05-17T07:33:47.908Z,14.01
2023-05-17T07:36:14.488Z,13.58
2023-05-17T07:38:41.053Z,12.50
2023-05-17T07:41:09.582Z,11.92
2023-05-17T07:43:37.768Z,11.84
2023-05-17T07:46:04.646Z,11.82
2023-05-17T07:48:31.525Z,12.25
2023-05-17T07:50:58.158Z,11.50
2023-05-17T07:53:27.718Z,11.89
2023-05-17T07:55:54.329Z,11.58
2023-05-17T07:58:20.915Z,11.48
2023-05-17T08:00:47.483Z,11.65
2023-05-17T08:03:15.801Z,11.41
2023-05-17T08:05:43.863Z,11.51
2023-05-17T08:08:11.659Z,11.45
2023-05-17T08:10:39.452Z,11.36
2023-05-17T08:13:06.213Z,11.34
2023-05-17T08:15:33.057Z,11.39
2023-05-17T08:18:02.135Z,12.12
2023-05-17T08:20:30.416Z,12.75
2023-05-17T08:22:57.171Z,13.95
2023-05-17T08:25:23.711Z,14.51
2023-05-17T08:27:50.448Z,13.28
2023-05-17T08:30:28.113Z,12.87
2023-05-17T08:32:56.645Z,12.48
2023-05-17T08:35:24.969Z,12.63
2023-05-17T08:37:53.908Z,13.13
2023-05-17T08:40:21.954Z,12.85
2023-05-17T08:42:50.599Z,12.51
2023-05-17T08:45:18.915Z,12.18
2023-05-17T08:47:46.648Z,12.14
2023-05-17T08:50:14.354Z,12.10
2023-05-17T08:52:44.816Z,11.87
2023-05-17T08:55:12.174Z,11.63
2023-05-17T08:57:40.414Z,11.43
2023-05-17T09:00:13.506Z,11.64
2023-05-17T09:02:42.189Z,11.68
2023-05-17T09:05:09.972Z,11.66
2023-05-17T09:07:37.183Z,11.40
2023-05-17T09:10:05.722Z,11.41
2023-05-17T09:12:36.651Z,12.02
2023-05-17T09:15:20.835Z,11.94
2023-05-17T09:17:54.521Z,11.92
2023-05-17T09:20:25.554Z,11.98
2023-05-17T09:22:52.515Z,11.76
2023-05-17T09:25:20.810Z,11.84
2023-05-17T09:27:47.315Z,12.11
2023-05-17T09:30:13.944Z,12.22
2023-05-17T09:35:14.157Z,12.60
2023-05-17T09:37:42.929Z,13.11
2023-05-17T09:40:10.666Z,13.73
2023-05-17T09:42:39.136Z,13.33
2023-05-17T09:45:06.026Z,13.16
2023-05-17T09:47:35.674Z,12.82
2023-05-17T09:50:04.784Z,12.66
2023-05-17T09:52:35.210Z,11.97
2023-05-17T09:55:02.006Z,11.93
2023-05-17T09:57:36.929Z,11.85
2023-05-17T10:00:07.989Z,11.63
2023-05-17T10:02:37.253Z,11.92
2023-05-17T10:05:11.682Z,11.67
2023-05-17T10:07:38.699Z,11.79
2023-05-17T10:10:06.618Z,12.14
2023-05-17T10:12:38.381Z,12.06
2023-05-17T10:15:05.492Z,12.52
2023-05-17T10:17:32.397Z,12.80
2023-05-17T10:19:59.486Z,13.71
2023-05-17T10:22:27.533Z,13.84
2023-05-17T10:24:56.421Z,14.64
2023-05-17T10:27:24.044Z,14.89
2023-05-17T10:29:52.986Z,14.98
2023-05-17T10:32:23.334Z,15.20
2023-05-17T10:34:58.046Z,15.68
2023-05-17T10:37:36.867Z,14.79
2023-05-17T10:40:03.765Z,14.05
2023-05-17T10:42:31.668Z,13.57
2023-05-17T10:45:00.807Z,13.60
2023-05-17T10:47:33.000Z,14.41
2023-05-17T10:51:37.849Z,15.50
2023-05-17T10:54:21.496Z,15.31
2023-05-17T10:56:50.821Z,14.86
2023-05-17T10:59:29.812Z,14.71
2023-05-17T11:02:06.827Z,15.28
2023-05-17T11:04:44.558Z,15.41
2023-05-17T11:07:22.091Z,14.77
2023-05-17T11:10:08.465Z,14.61
2023-05-17T11:12:55.339Z,14.28
2023-05-17T11:15:28.234Z,13.93
2023-05-17T11:17:57.829Z,13.69
2023-05-17T11:20:27.849Z,13.40
2023-05-17T11:22:58.954Z,13.28
2023-05-17T11:25:31.448Z,13.16
2023-05-17T11:27:58.811Z,13.65
2023-05-17T11:30:30.521Z,14.59
2023-05-17T11:33:01.281Z,15.67
2023-05-17T11:35:31.232Z,16.09
2023-05-17T11:38:16.389Z,15.24
2023-05-17T11:40:43.670Z,14.57
2023-05-17T11:43:18.450Z,14.35
2023-05-17T11:45:48.219Z,13.88
2023-05-17T11:48:16.339Z,14.15
2023-05-17T11:50:44.030Z,14.15
2023-05-17T11:53:11.324Z,14.09
2023-05-17T11:55:40.062Z,15.76
2023-05-17T11:58:08.448Z,15.52
2023-05-17T12:00:36.209Z,17.12
2023-05-17T12:03:16.901Z,18.28
2023-05-17T12:05:44.440Z,20.32
2023-05-17T12:08:11.808Z,20.64
2023-05-17T12:10:44.888Z,19.61
2023-05-17T12:13:11.541Z,19.05
2023-05-17T12:15:39.159Z,17.19
2023-05-17T12:18:05.924Z,15.99
2023-05-17T12:20:33.406Z,15.59
2023-05-17T12:23:00.105Z,15.66
2023-05-17T12:25:27.934Z,15.02
2023-05-17T12:28:12.980Z,15.19
2023-05-17T12:30:40.077Z,15.66
2023-05-17T12:33:07.816Z,15.56
2023-05-17T12:35:34.672Z,15.25
2023-05-17T12:38:01.569Z,15.28
2023-05-17T12:40:29.226Z,17.32
2023-05-17T12:43:05.866Z,16.22
2023-05-17T12:45:34.304Z,17.67
2023-05-17T12:48:01.010Z,18.42
2023-05-17T12:50:31.375Z,17.92
2023-05-17T12:52:58.756Z,18.38
2023-05-17T12:55:25.443Z,19.19
2023-05-17T12:57:53.596Z,18.40
2023-05-17T13:00:21.513Z,18.55
2023-05-17T13:02:48.189Z,18.28
2023-05-17T13:05:17.112Z,18.06
2023-05-17T13:07:44.023Z,17.86
2023-05-17T13:10:26.199Z,17.29
2023-05-17T13:12:57.502Z,17.27
2023-05-17T13:15:32.333Z,16.87
2023-05-17T13:18:00.619Z,16.09
2023-05-17T13:20:27.785Z,16.05
2023-05-17T13:22:54.810Z,15.94
2023-05-17T13:25:21.421Z,16.31
2023-05-17T13:27:49.378Z,15.97
2023-05-17T13:30:16.795Z,15.43
2023-05-17T13:32:44.766Z,15.55
2023-05-17T13:35:11.789Z,15.46
2023-05-17T13:37:38.404Z,15.03
2023-05-17T13:40:05.903Z,14.99
2023-05-17T13:42:33.142Z,14.89
2023-05-17T13:45:01.544Z,15.19
2023-05-17T13:47:31.613Z,15.68
2023-05-17T13:50:01.727Z,16.20
2023-05-17T13:52:28.373Z,16.38
2023-05-17T13:54:55.053Z,15.65
2023-05-17T13:57:21.821Z,15.66
2023-05-17T13:59:48.619Z,14.87
2023-05-17T14:02:15.369Z,14.57
2023-05-17T14:04:42.067Z,15.15
2023-05-17T14:07:08.656Z,15.54
2023-05-17T14:09:36.705Z,15.50
2023-05-17T14:12:03.635Z,15.05
2023-05-17T14:14:30.493Z,15.27
2023-05-17T14:16:57.689Z,15.63
2023-05-17T14:19:24.298Z,15.33
2023-05-17T14:21:50.906Z,15.53
2023-05-17T14:24:17.451Z,15.80
2023-05-17T14:26:44.250Z,15.47
2023-05-17T14:29:10.777Z,15.02
2023-05-17T14:31:37.539Z,15.21
2023-05-17T14:34:04.216Z,15.30
2023-05-17T14:36:31.869Z,15.61
2023-05-17T14:38:59.322Z,15.83
2023-05-17T14:41:25.820Z,15.82
2023-05-17T14:43:52.539Z,15.38
2023-05-17T14:46:19.649Z,15.26
2023-05-17T14:48:46.269Z,15.45
2023-05-17T14:51:13.259Z,15.33
2023-05-17T14:53:39.908Z,15.17
2023-05-17T14:56:06.833Z,15.14
2023-05-17T14:58:33.327Z,15.49
2023-05-17T15:01:05.477Z,15.53
2023-05-17T15:03:33.747Z,15.27
2023-05-17T15:06:01.720Z,15.33
2023-05-17T15:08:29.938Z,15.14
2023-05-17T15:10:57.772Z,15.29
2023-05-17T15:13:25.200Z,15.15
2023-05-17T15:15:52.995Z,15.15
2023-05-17T15:18:20.545Z,15.10
2023-05-17T15:20:47.081Z,15.44
2023-05-17T15:23:13.658Z,15.53
2023-05-17T15:25:41.081Z,15.69
2023-05-17T15:28:07.619Z,15.70
2023-05-17T15:30:34.180Z,15.63
2023-05-17T15:33:01.335Z,15.71
2023-05-17T15:35:28.092Z,15.69
2023-05-17T15:37:54.859Z,15.39
2023-05-17T15:40:22.230Z,15.49
2023-05-17T15:42:50.609Z,15.64
2023-05-17T15:45:17.204Z,15.68
2023-05-17T15:47:44.066Z,15.45
2023-05-17T15:50:11.054Z,15.21
2023-05-17T15:52:37.948Z,15.03
2023-05-17T15:55:04.993Z,14.92
2023-05-17T15:57:31.493Z,14.89
2023-05-17T15:59:58.148Z,14.85
2023-05-17T16:02:24.916Z,14.99
2023-05-17T16:04:51.562Z,14.97
2023-05-17T16:07:18.065Z,14.83
2023-05-17T16:09:44.604Z,14.96
2023-05-17T16:12:11.157Z,15.17
2023-05-17T16:14:40.045Z,15.02
2023-05-17T16:17:06.871Z,15.04
2023-05-17T16:19:34.309Z,15.29
2023-05-17T16:22:01.456Z,15.23
2023-05-17T16:24:28.055Z,15.14
2023-05-17T16:26:54.570Z,14.72
2023-05-17T16:29:21.283Z,14.78
2023-05-17T16:31:48.613Z,14.86
2023-05-17T16:34:15.356Z,14.73
2023-05-17T16:36:42.238Z,14.71
2023-05-17T16:39:08.724Z,14.64
2023-05-17T16:41:35.827Z,14.66
2023-05-17T16:44:02.331Z,14.46
2023-05-17T16:46:28.856Z,14.25
2023-05-17T16:48:55.823Z,14.41
2023-05-17T16:51:22.500Z,14.42
2023-05-17T16:53:49.074Z,14.58
2023-05-17T16:56:15.569Z,14.49
2023-05-17T16:58:42.528Z,14.51
2023-05-17T17:01:09.141Z,14.45
2023-05-17T17:03:35.753Z,14.38
2023-05-17T17:06:02.362Z,14.34
2023-05-17T17:08:28.850Z,14.38
2023-05-17T17:10:55.623Z,14.27
2023-05-17T17:13:22.103Z,14.35
2023-05-17T17:15:50.891Z,14.39
2023-05-17T17:18:17.632Z,14.22
2023-05-17T17:20:45.165Z,14.17
2023-05-17T17:23:11.823Z,14.21
2023-05-17T17:25:38.487Z,14.12
2023-05-17T17:28:05.244Z,13.80
2023-05-17T17:30:31.979Z,13.74
2023-05-17T17:32:58.788Z,13.52
2023-05-17T17:35:25.363Z,13.57
2023-05-17T17:37:53.124Z,13.70
2023-05-17T17:40:20.008Z,13.71
2023-05-17T17:42:47.157Z,13.61
2023-05-17T17:45:13.740Z,13.63
2023-05-17T17:47:40.348Z,13.66
2023-05-17T17:50:07.519Z,13.60
2023-05-17T17:52:34.070Z,13.67
2023-05-17T17:55:00.746Z,13.63
2023-05-17T17:57:27.396Z,13.52
2023-05-17T17:59:54.342Z,13.36
2023-05-17T18:02:21.002Z,13.41
2023-05-17T18:04:47.498Z,13.43
2023-05-17T18:07:16.277Z,13.37
2023-05-17T18:09:43.377Z,13.03
2023-05-17T18:12:09.994Z,13.11
2023-05-17T18:14:36.505Z,13.00
2023-05-17T18:17:03.112Z,12.95
2023-05-17T18:19:29.600Z,12.83
2023-05-17T18:21:56.088Z,12.66
2023-05-17T18:24:22.572Z,12.42
2023-05-17T18:26:49.150Z,12.38
2023-05-17T18:29:15.686Z,12.23
2023-05-17T18:31:42.240Z,12.29
2023-05-17T18:34:09.053Z,11.93
2023-05-17T18:36:35.544Z,11.76
2023-05-17T18:39:02.058Z,11.57
2023-05-17T18:41:28.548Z,11.33
2023-05-17T18:43:55.851Z,11.11
2023-05-17T18:46:22.402Z,11.02
2023-05-17T18:48:48.902Z,10.91
2023-05-17T18:51:15.801Z,11.05
2023-05-17T18:53:42.409Z,11.02
2023-05-17T18:56:08.901Z,11.03
2023-05-17T18:58:35.467Z,10.85
2023-05-17T19:01:02.632Z,10.88
2023-05-17T19:03:29.356Z,10.81
2023-05-17T19:05:55.833Z,10.48
2023-05-17T19:08:22.342Z,10.29
2023-05-17T19:10:49.435Z,10.23
2023-05-17T19:13:15.918Z,10.14
2023-05-17T19:15:42.545Z,9.83
2023-05-17T19:18:09.114Z,9.63
2023-05-17T19:20:35.843Z,9.59
2023-05-17T19:23:02.361Z,9.58
2023-05-17T19:25:28.989Z,9.44
2023-05-17T19:27:55.624Z,9.38
2023-05-17T19:30:22.112Z,9.24
2023-05-17T19:32:49.565Z,9.14
2023-05-17T19:35:16.239Z,9.04
2023-05-17T19:37:43.046Z,8.99
2023-05-17T19:40:10.047Z,8.93
2023-05-17T19:42:36.550Z,8.75
2023-05-17T19:45:03.208Z,8.90
2023-05-17T19:47:29.841Z,9.03
2023-05-17T19:49:56.336Z,9.06
2023-05-17T19:52:22.854Z,8.98
2023-05-17T19:54:49.327Z,9.09
2023-05-17T19:57:15.811Z,9.05
2023-05-17T19:59:42.373Z,8.96
2023-05-17T20:02:09.174Z,8.92
2023-05-17T20:04:35.827Z,8.77
2023-05-17T20:07:02.398Z,8.49
2023-05-17T20:09:30.345Z,8.31
2023-05-17T20:11:57.168Z,8.13
2023-05-17T20:14:24.243Z,8.01
2023-05-17T20:16:51.037Z,7.78
2023-05-17T20:19:17.746Z,7.75
2023-05-17T20:21:44.712Z,7.60
2023-05-17T20:24:11.317Z,7.53
2023-05-17T20:26:37.967Z,7.49
2023-05-17T20:29:07.273Z,7.54
2023-05-17T20:31:35.992Z,7.66
2023-05-17T20:34:03.415Z,7.50
2023-05-17T20:36:30.005Z,7.27
2023-05-17T20:38:56.575Z,7.27
2023-05-17T20:41:23.536Z,7.45
2023-05-17T20:43:50.025Z,7.55
2023-05-17T20:46:17.154Z,7.61
2023-05-17T20:48:46.036Z,7.62
2023-05-17T20:51:12.597Z,7.31
2023-05-17T20:53:39.743Z,6.99
2023-05-17T20:56:07.239Z,6.94
2023-05-17T20:58:34.009Z,7.06
2023-05-17T21:01:01.165Z,6.73
2023-05-17T21:03:29.129Z,6.58
2023-05-17T21:05:55.807Z,6.54
2023-05-17T21:08:22.824Z,6.54
2023-05-17T21:10:49.744Z,6.48
2023-05-17T21:13:16.325Z,6.52
2023-05-17T21:15:42.976Z,6.50
2023-05-17T21:18:10.959Z,6.40
2023-05-17T21:20:37.961Z,6.45
2023-05-17T21:23:04.625Z,6.34
2023-05-17T21:25:31.337Z,6.27
2023-05-17T21:27:58.012Z,6.37
2023-05-17T21:30:24.527Z,6.30
2023-05-17T21:32:51.282Z,6.25
2023-05-17T21:35:17.903Z,6.48
2023-05-17T21:37:44.476Z,6.31
2023-05-17T21:40:11.403Z,6.09
2023-05-17T21:42:38.020Z,6.15
2023-05-17T21:45:05.112Z,6.11
2023-05-17T21:47:31.971Z,6.08
2023-05-17T21:49:59.472Z,6.03
2023-05-17T21:52:26.027Z,6.10
2023-05-17T21:54:52.557Z,6.14
2023-05-17T21:57:20.974Z,6.40
2023-05-17T21:59:48.820Z,6.42
2023-05-17T22:02:15.420Z,6.38
2023-05-17T22:04:42.383Z,6.37
2023-05-17T22:07:09.850Z,6.30
2023-05-17T22:09:36.829Z,6.10
2023-05-17T22:12:04.944Z,6.04
2023-05-17T22:14:34.881Z,6.21
2023-05-17T22:17:01.550Z,6.37
2023-05-17T22:19:30.266Z,6.09
2023-05-17T22:21:56.972Z,5.83
2023-05-17T22:24:23.460Z,5.94
2023-05-17T22:26:50.039Z,6.10
2023-05-17T22:29:16.538Z,6.14
2023-05-17T22:31:43.178Z,6.25
2023-05-17T22:34:09.795Z,6.23
2023-05-17T22:36:36.368Z,5.84
2023-05-17T22:39:02.919Z,6.10
2023-05-17T22:41:29.477Z,5.99
2023-05-17T22:43:56.101Z,5.88
2023-05-17T22:46:22.796Z,5.86
2023-05-17T22:48:50.088Z,5.75
2023-05-17T22:51:18.579Z,5.76
2023-05-17T22:53:45.446Z,5.64
2023-05-17T22:56:12.131Z,5.76
2023-05-17T22:58:38.821Z,5.70
2023-05-17T23:01:05.698Z,5.98
2023-05-17T23:03:32.392Z,6.10
2023-05-17T23:06:05.170Z,6.22
2023-05-17T23:08:32.337Z,6.24
2023-05-17T23:10:58.910Z,6.30
2023-05-17T23:13:26.200Z,6.37
2023-05-17T23:15:53.321Z,6.18
2023-05-17T23:18:19.881Z,5.96
2023-05-17T23:20:48.785Z,5.75
2023-05-17T23:23:16.032Z,5.90
2023-05-17T23:25:44.704Z,6.08
2023-05-17T23:28:11.455Z,5.79
2023-05-17T23:30:39.872Z,5.78
2023-05-17T23:33:06.908Z,5.82
2023-05-17T23:35:33.501Z,6.03
2023-05-17T23:38:00.207Z,6.07
2023-05-17T23:40:26.909Z,6.15
2023-05-17T23:42:53.431Z,6.17
2023-05-17T23:45:19.960Z,6.20
2023-05-17T23:47:47.611Z,5.90
2023-05-17T23:50:14.533Z,5.97
2023-05-17T23:52:41.077Z,6.07
2023-05-17T23:55:08.225Z,6.01
2023-05-17T23:57:35.330Z,6.18
